createdAt,value
2018-12-28T00:00:13.532Z,20.84
2018-12-28T00:02:39.496Z,20.84
2018-12-28T00:05:05.494Z,20.84
2018-12-28T00:07:31.502Z,20.86
2018-12-28T00:09:57.486Z,20.85
2018-12-28T00:12:23.464Z,20.84
2018-12-28T00:14:49.500Z,20.84
2018-12-28T00:17:15.467Z,20.85
2018-12-28T00:19:41.500Z,20.82
2018-12-28T00:22:07.490Z,20.85
2018-12-28T00:24:33.493Z,20.83
2018-12-28T00:26:59.508Z,20.85
2018-12-28T00:29:25.497Z,20.85
2018-12-28T00:31:51.480Z,20.84
2018-12-28T00:34:17.503Z,20.85
2018-12-28T00:36:43.468Z,20.83
2018-12-28T00:39:09.473Z,20.83
2018-12-28T00:41:35.478Z,20.83
2018-12-28T00:44:01.464Z,20.83
2018-12-28T00:46:27.453Z,20.83
2018-12-28T00:48:53.488Z,20.83
2018-12-28T00:51:19.463Z,20.85
2018-12-28T00:53:45.527Z,20.83
2018-12-28T00:56:11.501Z,20.84
2018-12-28T00:58:37.487Z,20.83
2018-12-28T01:01:03.517Z,20.83
2018-12-28T01:03:29.488Z,20.84
2018-12-28T01:05:55.461Z,20.83
2018-12-28T01:08:21.472Z,20.82
2018-12-28T01:10:47.459Z,20.84
2018-12-28T01:13:13.440Z,20.85
2018-12-28T01:15:39.462Z,20.83
2018-12-28T01:18:05.440Z,20.83
2018-12-28T01:20:31.424Z,20.83
2018-12-28T01:22:57.439Z,20.82
2018-12-28T01:25:23.472Z,20.84
2018-12-28T01:27:49.424Z,20.83
2018-12-28T01:30:15.439Z,20.82
2018-12-28T01:32:41.434Z,20.82
2018-12-28T01:35:07.410Z,20.82
2018-12-28T01:37:33.387Z,20.82
2018-12-28T01:39:59.412Z,20.82
2018-12-28T01:42:25.395Z,20.84
2018-12-28T01:44:51.360Z,20.83
2018-12-28T01:47:17.384Z,20.85
2018-12-28T01:49:43.414Z,20.84
2018-12-28T01:52:09.370Z,20.83
2018-12-28T01:54:35.388Z,20.82
2018-12-28T01:57:01.441Z,20.81
2018-12-28T01:59:27.397Z,20.82
2018-12-28T02:01:53.384Z,20.81
2018-12-28T02:04:19.417Z,20.81
2018-12-28T02:06:45.389Z,20.82
2018-12-28T02:09:11.379Z,20.82
2018-12-28T02:11:37.427Z,20.81
2018-12-28T02:14:03.397Z,20.83
2018-12-28T02:16:29.383Z,20.81
2018-12-28T02:18:55.389Z,20.83
2018-12-28T02:21:21.389Z,20.81
2018-12-28T02:23:47.366Z,20.80
2018-12-28T02:26:13.393Z,20.81
2018-12-28T02:28:39.382Z,20.81
2018-12-28T02:31:05.367Z,20.83
2018-12-28T02:33:31.400Z,20.82
2018-12-28T02:35:57.379Z,20.81
2018-12-28T02:38:23.406Z,20.82
2018-12-28T02:40:49.436Z,20.81
2018-12-28T02:43:15.401Z,20.81
2018-12-28T02:45:41.381Z,20.82
2018-12-28T02:48:07.392Z,20.80
2018-12-28T02:50:33.391Z,20.82
2018-12-28T02:52:59.408Z,20.82
2018-12-28T02:55:25.389Z,20.81
2018-12-28T02:57:51.417Z,20.81
2018-12-28T03:00:17.410Z,20.82
2018-12-28T03:02:43.398Z,20.82
2018-12-28T03:05:09.439Z,20.81
2018-12-28T03:07:35.413Z,20.82
2018-12-28T03:10:01.417Z,20.81
2018-12-28T03:12:27.431Z,20.80
2018-12-28T03:14:53.400Z,20.80
2018-12-28T03:17:19.396Z,20.81
2018-12-28T03:19:45.414Z,20.80
2018-12-28T03:22:11.413Z,20.82
2018-12-28T03:24:37.378Z,20.82
2018-12-28T03:27:03.382Z,20.82
2018-12-28T03:29:29.361Z,20.80
2018-12-28T03:31:55.390Z,20.80
2018-12-28T03:34:21.355Z,20.80
2018-12-28T03:36:47.332Z,20.81
2018-12-28T03:39:13.323Z,20.81
2018-12-28T03:41:39.306Z,20.82
2018-12-28T03:44:05.311Z,20.82
2018-12-28T03:46:31.317Z,20.81
2018-12-28T03:48:57.305Z,20.83
2018-12-28T03:51:23.315Z,20.81
2018-12-28T03:53:49.338Z,20.82
2018-12-28T03:56:15.339Z,20.83
2018-12-28T03:58:41.322Z,20.82
2018-12-28T04:01:07.344Z,20.83
2018-12-28T04:03:33.327Z,20.83
2018-12-28T04:05:59.297Z,20.83
2018-12-28T04:08:25.336Z,20.82
2018-12-28T04:10:51.318Z,20.81
2018-12-28T04:13:17.317Z,20.81
2018-12-28T04:15:43.322Z,20.82
2018-12-28T04:18:09.322Z,20.81
2018-12-28T04:20:35.312Z,20.81
2018-12-28T04:23:01.350Z,20.81
2018-12-28T04:25:27.319Z,20.81
2018-12-28T04:27:53.366Z,20.81
2018-12-28T04:30:19.337Z,20.80
2018-12-28T04:32:45.323Z,20.81
2018-12-28T04:35:11.333Z,20.81
2018-12-28T04:37:37.312Z,20.81
2018-12-28T04:40:08.928Z,20.81
2018-12-28T04:42:29.307Z,20.79
2018-12-28T04:44:55.274Z,20.80
2018-12-28T04:47:21.258Z,20.80
2018-12-28T04:49:47.271Z,20.80
2018-12-28T04:52:13.261Z,20.81
2018-12-28T04:54:39.232Z,20.82
2018-12-28T04:57:05.250Z,20.81
2018-12-28T04:59:31.236Z,20.80
2018-12-28T05:01:57.243Z,20.81
2018-12-28T05:04:23.276Z,20.80
2018-12-28T05:06:49.257Z,20.79
2018-12-28T05:09:15.230Z,20.80
2018-12-28T05:11:41.231Z,20.81
2018-12-28T05:14:07.228Z,20.80
2018-12-28T05:16:33.223Z,20.82
2018-12-28T05:18:59.201Z,20.80
2018-12-28T05:21:25.191Z,20.81
2018-12-28T05:23:51.215Z,20.80
2018-12-28T05:26:17.233Z,20.80
2018-12-28T05:28:43.220Z,20.79
2018-12-28T05:31:09.176Z,20.81
2018-12-28T05:33:35.243Z,20.78
2018-12-28T05:36:01.260Z,20.80
2018-12-28T05:38:27.227Z,20.79
2018-12-28T05:40:53.205Z,20.79
2018-12-28T05:43:19.218Z,20.81
2018-12-28T05:45:45.201Z,20.80
2018-12-28T05:48:11.176Z,20.80
2018-12-28T05:50:37.213Z,20.80
2018-12-28T05:53:03.198Z,20.79
2018-12-28T05:55:29.215Z,20.80
2018-12-28T05:57:56.438Z,20.80
2018-12-28T06:00:21.212Z,20.81
2018-12-28T06:02:47.250Z,20.83
2018-12-28T06:05:13.238Z,20.80
2018-12-28T06:07:39.262Z,20.81
2018-12-28T06:10:05.239Z,20.83
2018-12-28T06:12:31.209Z,20.81
2018-12-28T06:14:57.262Z,20.81
2018-12-28T06:17:23.289Z,20.78
2018-12-28T06:19:49.288Z,20.77
2018-12-28T06:22:15.263Z,20.78
2018-12-28T06:24:41.294Z,20.80
2018-12-28T06:27:07.265Z,20.85
2018-12-28T06:29:33.249Z,20.80
2018-12-28T06:31:59.274Z,20.78
2018-12-28T06:34:25.248Z,20.77
2018-12-28T06:36:51.719Z,20.78
2018-12-28T06:39:17.258Z,20.77
2018-12-28T06:41:43.222Z,20.86
2018-12-28T06:44:09.204Z,20.81
2018-12-28T06:46:35.238Z,20.82
2018-12-28T06:49:01.238Z,20.78
2018-12-28T06:51:27.210Z,20.78
2018-12-28T06:53:53.233Z,20.80
2018-12-28T06:56:19.213Z,20.80
2018-12-28T06:58:45.200Z,20.83
2018-12-28T07:01:11.213Z,20.83
2018-12-28T07:03:37.233Z,20.86
2018-12-28T07:06:03.207Z,20.86
2018-12-28T07:08:29.223Z,20.84
2018-12-28T07:10:55.214Z,20.88
2018-12-28T07:13:21.170Z,20.92
2018-12-28T07:15:47.214Z,20.90
2018-12-28T07:18:13.182Z,20.90
2018-12-28T07:20:39.165Z,20.88
2018-12-28T07:23:05.212Z,20.89
2018-12-28T07:25:31.213Z,20.88
2018-12-28T07:27:57.198Z,20.91
2018-12-28T07:30:23.239Z,20.93
2018-12-28T07:32:49.202Z,20.94
2018-12-28T07:35:15.316Z,20.93
2018-12-28T07:37:41.481Z,20.98
2018-12-28T07:40:08.580Z,20.96
2018-12-28T07:42:34.541Z,20.97
2018-12-28T07:45:07.584Z,20.98
2018-12-28T07:47:34.340Z,20.97
2018-12-28T07:50:00.359Z,20.95
2018-12-28T07:52:26.377Z,20.98
2018-12-28T07:54:52.715Z,21.02
2018-12-28T07:57:18.752Z,20.97
2018-12-28T07:59:44.718Z,20.97
2018-12-28T08:02:10.975Z,21.03
2018-12-28T08:04:37.532Z,21.04
2018-12-28T08:07:03.761Z,21.02
2018-12-28T08:09:31.330Z,21.00
2018-12-28T08:11:57.368Z,21.01
2018-12-28T08:14:23.380Z,21.00
2018-12-28T08:16:49.562Z,21.00
2018-12-28T08:19:17.706Z,21.04
2018-12-28T08:21:48.168Z,21.02
2018-12-28T08:24:14.278Z,21.06
2018-12-28T08:26:40.296Z,21.06
2018-12-28T08:29:06.306Z,21.06
2018-12-28T08:31:32.639Z,21.03
2018-12-28T08:33:58.677Z,21.04
2018-12-28T08:36:25.476Z,21.02
2018-12-28T08:38:51.462Z,21.01
2018-12-28T08:41:18.174Z,21.00
2018-12-28T08:43:44.163Z,21.00
2018-12-28T08:46:10.148Z,20.99
2018-12-28T08:48:43.238Z,20.97
2018-12-28T08:51:20.450Z,21.00
2018-12-28T08:53:47.170Z,21.01
2018-12-28T08:56:15.523Z,21.02
2018-12-28T08:58:44.196Z,21.00
2018-12-28T09:01:10.222Z,21.05
2018-12-28T09:03:36.240Z,21.03
2018-12-28T09:06:02.266Z,20.99
2018-12-28T09:08:28.300Z,20.97
2018-12-28T09:10:59.173Z,21.04
2018-12-28T09:13:25.219Z,21.01
2018-12-28T09:15:51.202Z,21.04
2018-12-28T09:18:17.223Z,21.10
2018-12-28T09:20:43.192Z,21.10
2018-12-28T09:23:09.199Z,21.08
2018-12-28T09:25:35.205Z,21.09
2018-12-28T09:28:01.184Z,21.13
2018-12-28T09:30:27.315Z,21.12
2018-12-28T09:32:53.301Z,21.15
2018-12-28T09:35:21.761Z,21.14
2018-12-28T09:37:47.782Z,21.21
2018-12-28T09:40:13.752Z,21.19
2018-12-28T09:42:39.736Z,21.20
2018-12-28T09:45:05.941Z,21.22
2018-12-28T09:47:31.911Z,21.22
2018-12-28T09:49:57.882Z,21.18
2018-12-28T09:52:24.105Z,21.19
2018-12-28T09:54:50.115Z,21.25
2018-12-28T09:57:16.080Z,21.23
2018-12-28T09:59:42.113Z,21.25
2018-12-28T10:02:08.085Z,21.24
2018-12-28T10:04:34.060Z,21.28
2018-12-28T10:07:00.439Z,21.30
2018-12-28T10:09:26.437Z,21.27
2018-12-28T10:11:52.411Z,21.22
2018-12-28T10:14:18.428Z,21.20
2018-12-28T10:16:44.431Z,21.17
2018-12-28T10:19:10.402Z,21.25
2018-12-28T10:21:36.430Z,21.24
2018-12-28T10:24:02.435Z,21.26
2018-12-28T10:26:28.408Z,21.21
2018-12-28T10:28:54.442Z,21.25
2018-12-28T10:31:20.477Z,21.26
2018-12-28T10:33:46.469Z,21.24
2018-12-28T10:36:12.500Z,21.23
2018-12-28T10:38:38.509Z,21.21
2018-12-28T10:41:04.494Z,21.21
2018-12-28T10:43:30.503Z,21.24
2018-12-28T10:45:56.554Z,21.29
2018-12-28T10:48:22.573Z,21.29
2018-12-28T10:50:48.565Z,21.30
2018-12-28T10:53:14.588Z,21.27
2018-12-28T10:55:40.588Z,21.24
2018-12-28T10:58:06.625Z,21.22
2018-12-28T11:00:32.606Z,21.20
2018-12-28T11:02:58.597Z,21.20
2018-12-28T11:05:24.605Z,21.22
2018-12-28T11:07:50.639Z,21.23
2018-12-28T11:10:16.708Z,21.25
2018-12-28T11:12:42.678Z,21.25
2018-12-28T11:15:08.724Z,21.23
2018-12-28T11:17:34.706Z,21.22
2018-12-28T11:20:00.687Z,21.22
2018-12-28T11:22:26.706Z,21.23
2018-12-28T11:24:52.721Z,21.26
2018-12-28T11:27:18.708Z,21.26
2018-12-28T11:29:44.730Z,21.23
2018-12-28T11:32:10.696Z,21.23
2018-12-28T11:34:36.658Z,21.22
2018-12-28T11:37:02.675Z,21.26
2018-12-28T11:39:28.708Z,21.26
2018-12-28T11:41:54.698Z,21.26
2018-12-28T11:44:20.680Z,21.24
2018-12-28T11:46:46.688Z,21.25
2018-12-28T11:49:12.679Z,21.25
2018-12-28T11:51:38.692Z,21.34
2018-12-28T11:54:04.694Z,21.30
2018-12-28T11:56:30.665Z,21.25
2018-12-28T11:58:56.628Z,21.28
2018-12-28T12:01:22.653Z,21.28
2018-12-28T12:03:48.611Z,21.29
2018-12-28T12:06:14.590Z,21.32
2018-12-28T12:08:40.615Z,21.30
2018-12-28T12:11:06.645Z,21.31
2018-12-28T12:13:32.645Z,21.33
2018-12-28T12:15:58.663Z,21.34
2018-12-28T12:18:24.644Z,21.34
2018-12-28T12:20:50.626Z,21.36
2018-12-28T12:23:16.646Z,21.36
2018-12-28T12:25:42.649Z,21.39
2018-12-28T12:28:08.653Z,21.40
2018-12-28T12:30:34.680Z,21.41
2018-12-28T12:33:00.667Z,21.42
2018-12-28T12:35:26.684Z,21.44
2018-12-28T12:37:52.717Z,21.42
2018-12-28T12:40:18.694Z,21.41
2018-12-28T12:42:44.691Z,21.41
2018-12-28T12:45:10.724Z,21.45
2018-12-28T12:47:36.713Z,21.46
2018-12-28T12:50:02.689Z,21.48
2018-12-28T12:52:28.923Z,21.48
2018-12-28T12:54:55.109Z,21.49
2018-12-28T12:57:21.089Z,21.49
2018-12-28T12:59:47.082Z,21.48
2018-12-28T13:02:13.093Z,21.52
2018-12-28T13:04:39.170Z,21.53
2018-12-28T13:07:05.084Z,21.51
2018-12-28T13:09:31.071Z,21.51
2018-12-28T13:11:57.091Z,21.52
2018-12-28T13:14:23.132Z,21.49
2018-12-28T13:16:49.147Z,21.51
2018-12-28T13:19:15.117Z,21.50
2018-12-28T13:21:41.145Z,21.54
2018-12-28T13:24:07.116Z,21.49
2018-12-28T13:26:33.164Z,21.57
2018-12-28T13:28:59.126Z,21.56
2018-12-28T13:31:25.092Z,21.54
2018-12-28T13:33:51.219Z,21.54
2018-12-28T13:36:17.255Z,21.50
2018-12-28T13:38:43.238Z,21.46
2018-12-28T13:41:09.233Z,21.46
2018-12-28T13:43:35.228Z,21.45
2018-12-28T13:46:01.198Z,21.44
2018-12-28T13:48:27.385Z,21.46
2018-12-28T13:50:53.365Z,21.44
2018-12-28T13:53:19.335Z,21.43
2018-12-28T13:55:45.353Z,21.41
2018-12-28T13:58:11.322Z,21.39
2018-12-28T14:00:37.296Z,21.39
2018-12-28T14:03:03.424Z,21.38
2018-12-28T14:05:29.385Z,21.39
2018-12-28T14:07:55.405Z,21.38
2018-12-28T14:10:21.441Z,21.36
2018-12-28T14:12:47.437Z,21.39
2018-12-28T14:15:13.396Z,21.41
2018-12-28T14:17:39.401Z,21.41
2018-12-28T14:20:05.411Z,21.44
2018-12-28T14:22:31.398Z,21.43
2018-12-28T14:24:57.425Z,21.41
2018-12-28T14:27:23.408Z,21.40
2018-12-28T14:29:49.410Z,21.43
2018-12-28T14:32:15.428Z,21.40
2018-12-28T14:34:41.621Z,21.41
2018-12-28T14:37:07.605Z,21.42
2018-12-28T14:39:33.730Z,21.37
2018-12-28T14:41:59.787Z,21.36
2018-12-28T14:44:25.781Z,21.35
2018-12-28T14:46:51.770Z,21.34
2018-12-28T14:49:17.797Z,21.32
2018-12-28T14:51:43.783Z,21.32
2018-12-28T14:54:09.776Z,21.32
2018-12-28T14:56:36.148Z,21.42
2018-12-28T14:59:02.146Z,21.52
2018-12-28T15:01:28.131Z,21.43
2018-12-28T15:03:54.156Z,21.40
2018-12-28T15:06:20.139Z,21.40
2018-12-28T15:08:46.162Z,21.40
2018-12-28T15:11:12.194Z,21.36
2018-12-28T15:13:38.192Z,21.33
2018-12-28T15:16:04.152Z,21.31
2018-12-28T15:18:30.179Z,21.30
2018-12-28T15:20:56.165Z,21.32
2018-12-28T15:23:22.182Z,21.32
2018-12-28T15:25:48.184Z,21.36
2018-12-28T15:28:14.156Z,21.36
2018-12-28T15:30:40.147Z,21.34
2018-12-28T15:33:06.209Z,21.33
2018-12-28T15:35:32.188Z,21.33
2018-12-28T15:37:58.190Z,21.32
2018-12-28T15:40:24.187Z,21.35
2018-12-28T15:42:51.047Z,21.38
2018-12-28T15:45:16.201Z,21.33
2018-12-28T15:47:42.179Z,21.35
2018-12-28T15:50:08.191Z,21.33
2018-12-28T15:52:41.382Z,21.37
2018-12-28T15:55:07.394Z,21.38
2018-12-28T15:57:33.374Z,21.40
2018-12-28T15:59:59.356Z,21.43
2018-12-28T16:02:25.444Z,21.42
2018-12-28T16:04:51.447Z,21.38
2018-12-28T16:07:17.446Z,21.38
2018-12-28T16:09:43.504Z,21.42
2018-12-28T16:12:09.512Z,21.45
2018-12-28T16:14:35.489Z,21.45
2018-12-28T16:17:01.466Z,21.46
2018-12-28T16:19:27.509Z,21.44
2018-12-28T16:21:53.504Z,21.44
2018-12-28T16:24:19.487Z,21.47
2018-12-28T16:26:45.531Z,21.46
2018-12-28T16:29:11.551Z,21.48
2018-12-28T16:31:37.533Z,21.47
2018-12-28T16:34:03.526Z,21.47
2018-12-28T16:36:29.555Z,21.45
2018-12-28T16:38:55.536Z,21.38
2018-12-28T16:41:21.516Z,21.36
2018-12-28T16:43:47.525Z,21.31
2018-12-28T16:46:14.039Z,21.29
2018-12-28T16:48:40.016Z,21.28
2018-12-28T16:51:06.429Z,21.28
2018-12-28T16:53:32.457Z,21.29
2018-12-28T16:55:58.555Z,21.26
2018-12-28T16:58:24.518Z,21.24
2018-12-28T17:00:50.491Z,21.26
2018-12-28T17:03:16.908Z,21.28
2018-12-28T17:05:42.982Z,21.28
2018-12-28T17:08:08.954Z,21.26
2018-12-28T17:10:35.031Z,21.27
2018-12-28T17:13:01.002Z,21.27
2018-12-28T17:15:26.988Z,21.27
2018-12-28T17:17:52.998Z,21.28
2018-12-28T17:20:18.996Z,21.27
2018-12-28T17:22:44.986Z,21.25
2018-12-28T17:25:10.993Z,21.27
2018-12-28T17:27:36.954Z,21.23
2018-12-28T17:30:03.006Z,21.23
2018-12-28T17:32:29.302Z,21.22
2018-12-28T17:34:55.265Z,21.25
2018-12-28T17:37:21.257Z,21.25
2018-12-28T17:39:47.270Z,21.25
2018-12-28T17:42:13.248Z,21.26
2018-12-28T17:44:39.220Z,21.27
2018-12-28T17:47:05.254Z,21.25
2018-12-28T17:49:31.276Z,21.21
2018-12-28T17:51:57.271Z,21.24
2018-12-28T17:54:23.251Z,21.24
2018-12-28T17:56:49.256Z,21.22
2018-12-28T17:59:15.367Z,21.19
2018-12-28T18:01:41.550Z,21.24
2018-12-28T18:04:07.578Z,21.19
2018-12-28T18:06:34.236Z,21.25
2018-12-28T18:09:00.200Z,21.27
2018-12-28T18:11:26.264Z,21.25
2018-12-28T18:13:52.286Z,21.25
2018-12-28T18:16:18.284Z,21.25
2018-12-28T18:18:44.322Z,21.26
2018-12-28T18:21:10.286Z,21.26
2018-12-28T18:23:36.298Z,21.25
2018-12-28T18:26:02.341Z,21.26
2018-12-28T18:28:29.891Z,21.25
2018-12-28T18:30:54.283Z,21.25
2018-12-28T18:33:20.324Z,21.27
2018-12-28T18:35:46.308Z,21.24
2018-12-28T18:38:15.109Z,21.22
2018-12-28T18:40:41.118Z,21.22
2018-12-28T18:43:07.125Z,21.24
2018-12-28T18:45:33.116Z,21.23
2018-12-28T18:47:59.354Z,21.22
2018-12-28T18:50:25.337Z,21.23
2018-12-28T18:52:51.359Z,21.23
2018-12-28T18:55:17.575Z,21.22
2018-12-28T18:57:43.635Z,21.21
2018-12-28T19:00:10.000Z,21.16
2018-12-28T19:02:35.999Z,21.19
2018-12-28T19:05:02.077Z,21.18
2018-12-28T19:07:28.052Z,21.18
2018-12-28T19:09:54.048Z,21.21
2018-12-28T19:12:20.049Z,21.21
2018-12-28T19:14:46.067Z,21.21
2018-12-28T19:17:12.035Z,21.19
2018-12-28T19:19:38.021Z,21.21
2018-12-28T19:22:04.023Z,21.20
2018-12-28T19:24:30.080Z,21.20
2018-12-28T19:26:56.114Z,21.16
2018-12-28T19:29:22.131Z,21.18
2018-12-28T19:31:48.396Z,21.18
2018-12-28T19:34:14.377Z,21.14
2018-12-28T19:36:40.758Z,21.17
2018-12-28T19:39:07.128Z,21.16
2018-12-28T19:41:33.103Z,21.17
2018-12-28T19:43:59.092Z,21.18
2018-12-28T19:46:25.134Z,21.20
2018-12-28T19:48:51.143Z,21.20
2018-12-28T19:51:17.170Z,21.21
2018-12-28T19:53:43.153Z,21.19
2018-12-28T19:56:09.156Z,21.20
2018-12-28T19:58:35.166Z,21.23
2018-12-28T20:01:01.138Z,21.21
2018-12-28T20:03:27.140Z,21.21
2018-12-28T20:05:53.126Z,21.21
2018-12-28T20:08:19.105Z,21.21
2018-12-28T20:10:45.118Z,21.21
2018-12-28T20:13:11.096Z,21.21
2018-12-28T20:15:37.149Z,21.20
2018-12-28T20:18:03.133Z,21.17
2018-12-28T20:20:29.109Z,21.14
2018-12-28T20:22:55.118Z,21.13
2018-12-28T20:25:21.097Z,21.10
2018-12-28T20:27:47.068Z,21.12
2018-12-28T20:30:13.212Z,21.14
2018-12-28T20:32:39.209Z,21.12
2018-12-28T20:35:05.266Z,21.11
2018-12-28T20:37:31.384Z,21.12
2018-12-28T20:39:57.356Z,21.12
2018-12-28T20:42:23.440Z,21.12
2018-12-28T20:44:49.409Z,21.12
2018-12-28T20:47:15.502Z,21.12
2018-12-28T20:49:41.532Z,21.16
2018-12-28T20:52:07.525Z,21.13
2018-12-28T20:54:33.515Z,21.15
2018-12-28T20:56:59.562Z,21.14
2018-12-28T20:59:25.722Z,21.12
2018-12-28T21:01:51.766Z,21.15
2018-12-28T21:04:18.017Z,21.12
2018-12-28T21:06:44.547Z,21.13
2018-12-28T21:09:11.771Z,21.13
2018-12-28T21:11:37.786Z,21.13
2018-12-28T21:14:11.320Z,21.13
2018-12-28T21:16:32.030Z,21.15
2018-12-28T21:18:58.245Z,21.12
2018-12-28T21:21:24.218Z,21.15
2018-12-28T21:23:50.236Z,21.13
2018-12-28T21:26:22.294Z,21.13
2018-12-28T21:28:48.258Z,21.16
2018-12-28T21:31:19.142Z,21.13
2018-12-28T21:33:47.836Z,21.11
2018-12-28T21:36:14.572Z,21.11
2018-12-28T21:38:41.626Z,21.11
2018-12-28T21:41:07.782Z,21.11
2018-12-28T21:43:34.732Z,21.11
2018-12-28T21:46:01.359Z,21.09
2018-12-28T21:48:28.002Z,21.10
2018-12-28T21:50:54.571Z,21.10
2018-12-28T21:53:20.969Z,21.10
2018-12-28T21:55:47.062Z,21.09
2018-12-28T21:58:17.031Z,21.08
2018-12-28T22:00:43.654Z,21.07
2018-12-28T22:03:09.679Z,21.07
2018-12-28T22:05:41.602Z,21.07
2018-12-28T22:08:08.910Z,21.06
2018-12-28T22:10:34.927Z,21.05
2018-12-28T22:13:00.916Z,21.05
2018-12-28T22:15:27.710Z,21.06
2018-12-28T22:17:55.179Z,21.03
2018-12-28T22:20:23.225Z,21.04
2018-12-28T22:22:49.196Z,21.03
2018-12-28T22:25:15.280Z,21.02
2018-12-28T22:27:41.250Z,21.02
2018-12-28T22:30:07.257Z,21.02
2018-12-28T22:32:33.287Z,21.01
2018-12-28T22:34:59.259Z,21.01
2018-12-28T22:37:25.234Z,21.01
2018-12-28T22:39:51.272Z,21.00
2018-12-28T22:42:17.256Z,20.98
2018-12-28T22:44:43.272Z,20.99
2018-12-28T22:47:09.284Z,20.99
2018-12-28T22:49:35.276Z,20.98
2018-12-28T22:52:01.296Z,21.00
2018-12-28T22:54:27.309Z,20.98
2018-12-28T22:56:53.276Z,20.98
2018-12-28T22:59:19.316Z,20.98
2018-12-28T23:01:45.296Z,20.97
2018-12-28T23:04:11.289Z,20.96
2018-12-28T23:06:37.308Z,20.95
2018-12-28T23:09:03.282Z,20.95
2018-12-28T23:11:29.273Z,20.95
2018-12-28T23:13:55.294Z,20.95
2018-12-28T23:16:21.279Z,20.95
2018-12-28T23:18:47.270Z,20.95
2018-12-28T23:21:13.307Z,20.94
2018-12-28T23:23:39.355Z,20.94
2018-12-28T23:26:05.330Z,20.95
2018-12-28T23:28:31.333Z,20.93
2018-12-28T23:30:57.351Z,20.93
2018-12-28T23:33:23.359Z,20.93
2018-12-28T23:35:49.340Z,20.93
2018-12-28T23:38:15.363Z,20.93
2018-12-28T23:40:41.379Z,20.93
2018-12-28T23:43:07.375Z,20.95
2018-12-28T23:45:33.345Z,20.92
2018-12-28T23:47:59.349Z,20.92
2018-12-28T23:50:25.342Z,20.92
2018-12-28T23:52:51.379Z,20.93
2018-12-28T23:55:17.359Z,20.92
2018-12-28T23:57:43.389Z,20.91
